Portada
METAR-TAF:

METAR-TAF

Aeropuertos :

Aeropuerto de Luxemburgo Findel

Luxemburgo, Luxemburgo

latitud: 49-37N, longitud: 006-13E, altitud: 376 m

Observación

El informe se hizo hace 10 horas y 29 minutos, a las 05:20 UTC
Viento 6 kt del noreste
Temperatura 18°C
Humedad 83%
Presión 1021 hPa
Visibilidad 10 km o más
Escasas nubes a una altura de 3100 ft
Nubes dispersas a una altura de 4800 ft

METAR: ELLX 210520Z 04006KT 9999 FEW031 SCT048 18/15 Q1021 NOSIG

Hora: 17:49 (15:49 UTC)

Pronóstico

El informe se hizo hace 10 horas y 49 minutos, a las 05:00 UTC
Pronóstico válido del 21 a las 06 UTC al 22 a las 12 UTC
Viento 5 kt del norte-noreste
Visibilidad 10 km o más
Escasas nubes a una altura de 3500 ft

TAF: ELLX 210500Z 2106/2212 02005KT 9999 FEW035

Observaciones y pronósticos meteorológicos de más de 4000 aeropuertos (mensajes METAR y TAF).

Los puntos amarillos y rojos representan las estaciones disponibles.

Ponga el ratón en el punto deseado para ver el nombre de la estación.

Haga clic para ver las observaciones y los pronósticos meteorológicos.

Para cambiar el mapa : haga clic en los botones verdes con una cruz de color negro para hacer un zoom, en el botón verde con un guión para alejar o en las flechas verdes para mapas adyacentes.


METAR-TAF: